Metar z pełnej godziny Komunikat METAR ze strony awiacja.imgw.pl Metar G00 EPBY METAR EPBY 221400Z 25012KT 9999 SCT049 17/04 Q1015 =